sensor_id;sensor_type;location;lat;lon;timestamp;P1;durP1;ratioP1;P2;durP2;ratioP2
64684;SDS011;51109;47.414;18.954;2023-11-19T00:00:43;13.40;;;8.00;;
64684;SDS011;51109;47.414;18.954;2023-11-19T00:03:08;12.57;;;7.18;;
64684;SDS011;51109;47.414;18.954;2023-11-19T00:05:38;10.43;;;6.85;;
64684;SDS011;51109;47.414;18.954;2023-11-19T00:08:04;12.15;;;7.68;;
64684;SDS011;51109;47.414;18.954;2023-11-19T00:10:31;12.20;;;7.75;;
64684;SDS011;51109;47.414;18.954;2023-11-19T00:12:57;11.40;;;7.65;;
64684;SDS011;51109;47.414;18.954;2023-11-19T00:15:23;11.40;;;7.43;;
64684;SDS011;51109;47.414;18.954;2023-11-19T00:17:49;14.27;;;8.43;;
64684;SDS011;51109;47.414;18.954;2023-11-19T00:20:18;12.75;;;7.03;;
64684;SDS011;51109;47.414;18.954;2023-11-19T00:22:47;13.32;;;7.65;;
64684;SDS011;51109;47.414;18.954;2023-11-19T00:25:19;12.13;;;7.35;;
64684;SDS011;51109;47.414;18.954;2023-11-19T00:27:46;12.18;;;7.05;;
64684;SDS011;51109;47.414;18.954;2023-11-19T00:30:13;12.15;;;7.13;;
64684;SDS011;51109;47.414;18.954;2023-11-19T00:32:40;15.60;;;8.13;;
64684;SDS011;51109;47.414;18.954;2023-11-19T00:35:06;15.10;;;8.23;;
64684;SDS011;51109;47.414;18.954;2023-11-19T00:37:35;14.38;;;7.88;;
64684;SDS011;51109;47.414;18.954;2023-11-19T00:40:01;14.13;;;8.52;;
64684;SDS011;51109;47.414;18.954;2023-11-19T00:42:30;12.57;;;7.78;;
64684;SDS011;51109;47.414;18.954;2023-11-19T00:44:56;11.07;;;7.32;;
64684;SDS011;51109;47.414;18.954;2023-11-19T00:47:23;13.82;;;8.07;;
64684;SDS011;51109;47.414;18.954;2023-11-19T00:49:49;12.60;;;7.95;;
64684;SDS011;51109;47.414;18.954;2023-11-19T00:52:15;12.80;;;8.25;;
64684;SDS011;51109;47.414;18.954;2023-11-19T00:54:42;18.58;;;8.27;;
64684;SDS011;51109;47.414;18.954;2023-11-19T00:57:08;16.05;;;8.80;;
64684;SDS011;51109;47.414;18.954;2023-11-19T00:59:34;15.07;;;8.27;;
64684;SDS011;51109;47.414;18.954;2023-11-19T01:02:00;12.95;;;8.63;;
64684;SDS011;51109;47.414;18.954;2023-11-19T01:04:33;16.77;;;9.18;;
64684;SDS011;51109;47.414;18.954;2023-11-19T01:07:01;17.13;;;9.10;;
64684;SDS011;51109;47.414;18.954;2023-11-19T01:09:31;15.70;;;9.45;;
64684;SDS011;51109;47.414;18.954;2023-11-19T01:12:01;15.30;;;9.23;;
64684;SDS011;51109;47.414;18.954;2023-11-19T01:14:27;14.57;;;8.50;;
64684;SDS011;51109;47.414;18.954;2023-11-19T01:16:53;13.10;;;7.75;;
64684;SDS011;51109;47.414;18.954;2023-11-19T01:19:20;15.52;;;8.23;;
64684;SDS011;51109;47.414;18.954;2023-11-19T01:21:47;18.20;;;9.52;;
64684;SDS011;51109;47.414;18.954;2023-11-19T01:24:13;17.20;;;9.05;;
64684;SDS011;51109;47.414;18.954;2023-11-19T01:26:40;16.05;;;9.30;;
64684;SDS011;51109;47.414;18.954;2023-11-19T01:29:15;15.07;;;9.32;;
64684;SDS011;51109;47.414;18.954;2023-11-19T01:31:42;15.05;;;8.40;;
64684;SDS011;51109;47.414;18.954;2023-11-19T01:34:09;14.57;;;9.45;;
64684;SDS011;51109;47.414;18.954;2023-11-19T01:36:36;14.48;;;8.15;;
64684;SDS011;51109;47.414;18.954;2023-11-19T01:39:02;16.73;;;9.23;;
64684;SDS011;51109;47.414;18.954;2023-11-19T01:41:35;15.93;;;8.98;;
64684;SDS011;51109;47.414;18.954;2023-11-19T01:44:01;15.73;;;8.63;;
64684;SDS011;51109;47.414;18.954;2023-11-19T01:46:27;16.02;;;8.90;;
64684;SDS011;51109;47.414;18.954;2023-11-19T01:48:54;14.35;;;8.52;;
64684;SDS011;51109;47.414;18.954;2023-11-19T01:51:21;15.30;;;8.80;;
64684;SDS011;51109;47.414;18.954;2023-11-19T01:53:47;12.82;;;8.07;;
64684;SDS011;51109;47.414;18.954;2023-11-19T01:56:14;16.38;;;8.73;;
64684;SDS011;51109;47.414;18.954;2023-11-19T01:58:41;13.18;;;8.35;;
64684;SDS011;51109;47.414;18.954;2023-11-19T02:03:57;15.27;;;8.48;;
64684;SDS011;51109;47.414;18.954;2023-11-19T02:06:23;15.48;;;8.75;;
64684;SDS011;51109;47.414;18.954;2023-11-19T02:08:51;13.70;;;8.35;;
64684;SDS011;51109;47.414;18.954;2023-11-19T02:11:17;13.13;;;8.05;;
64684;SDS011;51109;47.414;18.954;2023-11-19T02:13:43;14.70;;;8.93;;
64684;SDS011;51109;47.414;18.954;2023-11-19T02:16:09;14.75;;;8.48;;
64684;SDS011;51109;47.414;18.954;2023-11-19T02:18:36;15.27;;;8.40;;
64684;SDS011;51109;47.414;18.954;2023-11-19T02:21:02;12.35;;;7.38;;
64684;SDS011;51109;47.414;18.954;2023-11-19T02:23:28;15.02;;;9.05;;
64684;SDS011;51109;47.414;18.954;2023-11-19T02:28:42;13.45;;;8.38;;
64684;SDS011;51109;47.414;18.954;2023-11-19T02:31:08;13.27;;;8.18;;
64684;SDS011;51109;47.414;18.954;2023-11-19T02:33:36;16.85;;;9.15;;
64684;SDS011;51109;47.414;18.954;2023-11-19T02:36:03;14.82;;;7.75;;
64684;SDS011;51109;47.414;18.954;2023-11-19T02:38:30;12.07;;;8.23;;
64684;SDS011;51109;47.414;18.954;2023-11-19T02:40:56;16.15;;;8.07;;
64684;SDS011;51109;47.414;18.954;2023-11-19T02:43:22;15.15;;;7.82;;
64684;SDS011;51109;47.414;18.954;2023-11-19T02:45:48;17.17;;;8.88;;
64684;SDS011;51109;47.414;18.954;2023-11-19T02:48:14;15.70;;;8.50;;
64684;SDS011;51109;47.414;18.954;2023-11-19T02:50:41;16.25;;;9.18;;
64684;SDS011;51109;47.414;18.954;2023-11-19T02:53:08;16.77;;;9.25;;
64684;SDS011;51109;47.414;18.954;2023-11-19T02:55:33;14.55;;;9.00;;
64684;SDS011;51109;47.414;18.954;2023-11-19T02:58:03;15.55;;;8.48;;
64684;SDS011;51109;47.414;18.954;2023-11-19T03:00:35;15.15;;;8.45;;
64684;SDS011;51109;47.414;18.954;2023-11-19T03:03:03;13.45;;;8.23;;
64684;SDS011;51109;47.414;18.954;2023-11-19T03:05:58;11.85;;;7.75;;
64684;SDS011;51109;47.414;18.954;2023-11-19T03:08:24;16.95;;;8.77;;
64684;SDS011;51109;47.414;18.954;2023-11-19T03:10:50;15.73;;;8.95;;
64684;SDS011;51109;47.414;18.954;2023-11-19T03:13:15;14.82;;;8.63;;
64684;SDS011;51109;47.414;18.954;2023-11-19T03:15:44;17.40;;;8.75;;
64684;SDS011;51109;47.414;18.954;2023-11-19T03:18:11;14.85;;;8.10;;
64684;SDS011;51109;47.414;18.954;2023-11-19T03:20:37;13.52;;;7.90;;
64684;SDS011;51109;47.414;18.954;2023-11-19T03:23:03;15.00;;;9.35;;
64684;SDS011;51109;47.414;18.954;2023-11-19T03:25:28;15.82;;;8.98;;
64684;SDS011;51109;47.414;18.954;2023-11-19T03:28:02;18.40;;;10.80;;
64684;SDS011;51109;47.414;18.954;2023-11-19T03:30:29;17.98;;;9.45;;
64684;SDS011;51109;47.414;18.954;2023-11-19T03:32:58;16.52;;;8.60;;
64684;SDS011;51109;47.414;18.954;2023-11-19T03:35:28;18.80;;;9.48;;
64684;SDS011;51109;47.414;18.954;2023-11-19T03:37:54;14.55;;;8.25;;
64684;SDS011;51109;47.414;18.954;2023-11-19T03:40:20;15.43;;;9.63;;
64684;SDS011;51109;47.414;18.954;2023-11-19T03:42:46;17.40;;;9.23;;
64684;SDS011;51109;47.414;18.954;2023-11-19T03:45:12;19.50;;;10.15;;
64684;SDS011;51109;47.414;18.954;2023-11-19T03:47:38;23.23;;;10.55;;
64684;SDS011;51109;47.414;18.954;2023-11-19T03:50:05;19.83;;;9.85;;
64684;SDS011;51109;47.414;18.954;2023-11-19T03:52:33;17.15;;;9.73;;
64684;SDS011;51109;47.414;18.954;2023-11-19T03:54:59;16.95;;;10.05;;
64684;SDS011;51109;47.414;18.954;2023-11-19T03:57:26;14.65;;;8.57;;
64684;SDS011;51109;47.414;18.954;2023-11-19T03:59:53;19.27;;;10.20;;
64684;SDS011;51109;47.414;18.954;2023-11-19T04:02:20;17.73;;;9.77;;
64684;SDS011;51109;47.414;18.954;2023-11-19T04:04:46;17.25;;;9.15;;
64684;SDS011;51109;47.414;18.954;2023-11-19T04:07:13;20.05;;;10.98;;
64684;SDS011;51109;47.414;18.954;2023-11-19T04:09:39;14.80;;;9.13;;
64684;SDS011;51109;47.414;18.954;2023-11-19T04:12:05;21.17;;;10.57;;
64684;SDS011;51109;47.414;18.954;2023-11-19T04:14:31;19.77;;;10.75;;
64684;SDS011;51109;47.414;18.954;2023-11-19T04:16:57;16.42;;;10.13;;
64684;SDS011;51109;47.414;18.954;2023-11-19T04:19:23;20.13;;;11.05;;
64684;SDS011;51109;47.414;18.954;2023-11-19T04:21:49;21.88;;;11.25;;
64684;SDS011;51109;47.414;18.954;2023-11-19T04:24:15;20.35;;;10.48;;
64684;SDS011;51109;47.414;18.954;2023-11-19T04:26:41;21.58;;;9.77;;
64684;SDS011;51109;47.414;18.954;2023-11-19T04:29:14;18.67;;;9.02;;
64684;SDS011;51109;47.414;18.954;2023-11-19T04:31:44;22.50;;;11.27;;
64684;SDS011;51109;47.414;18.954;2023-11-19T04:34:11;19.98;;;10.75;;
64684;SDS011;51109;47.414;18.954;2023-11-19T04:36:37;20.80;;;11.50;;
64684;SDS011;51109;47.414;18.954;2023-11-19T04:39:04;18.98;;;10.63;;
64684;SDS011;51109;47.414;18.954;2023-11-19T04:41:50;17.58;;;10.15;;
64684;SDS011;51109;47.414;18.954;2023-11-19T04:44:18;18.60;;;10.60;;
64684;SDS011;51109;47.414;18.954;2023-11-19T04:46:45;21.42;;;10.52;;
64684;SDS011;51109;47.414;18.954;2023-11-19T04:49:11;16.40;;;10.20;;
64684;SDS011;51109;47.414;18.954;2023-11-19T04:51:42;18.83;;;10.65;;
64684;SDS011;51109;47.414;18.954;2023-11-19T04:54:09;18.48;;;10.32;;
64684;SDS011;51109;47.414;18.954;2023-11-19T04:56:38;15.65;;;9.90;;
64684;SDS011;51109;47.414;18.954;2023-11-19T04:59:05;17.25;;;10.00;;
64684;SDS011;51109;47.414;18.954;2023-11-19T05:01:32;20.70;;;9.93;;
64684;SDS011;51109;47.414;18.954;2023-11-19T05:03:58;16.60;;;10.23;;
64684;SDS011;51109;47.414;18.954;2023-11-19T05:06:31;21.40;;;10.73;;
64684;SDS011;51109;47.414;18.954;2023-11-19T05:08:58;22.42;;;11.63;;
64684;SDS011;51109;47.414;18.954;2023-11-19T05:11:33;18.92;;;9.90;;
64684;SDS011;51109;47.414;18.954;2023-11-19T05:13:59;20.10;;;11.40;;
64684;SDS011;51109;47.414;18.954;2023-11-19T05:16:29;21.48;;;11.10;;
64684;SDS011;51109;47.414;18.954;2023-11-19T05:18:55;20.23;;;10.82;;
64684;SDS011;51109;47.414;18.954;2023-11-19T05:21:21;22.15;;;11.63;;
64684;SDS011;51109;47.414;18.954;2023-11-19T05:23:46;21.88;;;11.90;;
64684;SDS011;51109;47.414;18.954;2023-11-19T05:26:22;23.17;;;12.25;;
64684;SDS011;51109;47.414;18.954;2023-11-19T05:28:49;21.25;;;11.25;;
64684;SDS011;51109;47.414;18.954;2023-11-19T05:31:16;18.92;;;11.18;;
64684;SDS011;51109;47.414;18.954;2023-11-19T05:33:42;20.65;;;12.40;;
64684;SDS011;51109;47.414;18.954;2023-11-19T05:36:08;25.77;;;12.02;;
64684;SDS011;51109;47.414;18.954;2023-11-19T05:38:36;21.70;;;12.82;;
64684;SDS011;51109;47.414;18.954;2023-11-19T05:41:05;19.92;;;12.02;;
64684;SDS011;51109;47.414;18.954;2023-11-19T05:43:31;20.52;;;11.20;;
64684;SDS011;51109;47.414;18.954;2023-11-19T05:45:57;17.63;;;11.57;;
64684;SDS011;51109;47.414;18.954;2023-11-19T05:48:25;19.20;;;10.80;;
64684;SDS011;51109;47.414;18.954;2023-11-19T05:50:51;20.33;;;11.05;;
64684;SDS011;51109;47.414;18.954;2023-11-19T05:53:17;20.70;;;11.50;;
64684;SDS011;51109;47.414;18.954;2023-11-19T05:55:43;19.00;;;10.52;;
64684;SDS011;51109;47.414;18.954;2023-11-19T05:58:19;18.92;;;10.35;;
64684;SDS011;51109;47.414;18.954;2023-11-19T06:00:56;19.58;;;11.35;;
64684;SDS011;51109;47.414;18.954;2023-11-19T06:03:23;21.73;;;11.57;;
64684;SDS011;51109;47.414;18.954;2023-11-19T06:05:49;18.45;;;10.85;;
64684;SDS011;51109;47.414;18.954;2023-11-19T06:08:15;17.38;;;11.00;;
64684;SDS011;51109;47.414;18.954;2023-11-19T06:10:42;18.95;;;9.10;;
64684;SDS011;51109;47.414;18.954;2023-11-19T06:13:11;17.10;;;9.30;;
64684;SDS011;51109;47.414;18.954;2023-11-19T06:15:37;19.05;;;11.00;;
64684;SDS011;51109;47.414;18.954;2023-11-19T06:18:04;22.38;;;11.55;;
64684;SDS011;51109;47.414;18.954;2023-11-19T06:20:32;20.73;;;11.27;;
64684;SDS011;51109;47.414;18.954;2023-11-19T06:23:04;21.67;;;12.02;;
64684;SDS011;51109;47.414;18.954;2023-11-19T06:25:30;28.77;;;12.75;;
64684;SDS011;51109;47.414;18.954;2023-11-19T06:27:57;22.67;;;11.85;;
64684;SDS011;51109;47.414;18.954;2023-11-19T06:30:23;24.30;;;12.13;;
64684;SDS011;51109;47.414;18.954;2023-11-19T06:32:49;24.80;;;13.30;;
64684;SDS011;51109;47.414;18.954;2023-11-19T06:35:15;30.25;;;15.43;;
64684;SDS011;51109;47.414;18.954;2023-11-19T06:37:42;29.50;;;15.20;;
64684;SDS011;51109;47.414;18.954;2023-11-19T06:40:09;31.77;;;15.18;;
64684;SDS011;51109;47.414;18.954;2023-11-19T06:42:40;26.70;;;15.00;;
64684;SDS011;51109;47.414;18.954;2023-11-19T06:45:06;35.00;;;16.80;;
64684;SDS011;51109;47.414;18.954;2023-11-19T06:47:32;30.55;;;16.42;;
64684;SDS011;51109;47.414;18.954;2023-11-19T06:49:59;31.98;;;15.45;;
64684;SDS011;51109;47.414;18.954;2023-11-19T06:52:25;26.13;;;14.77;;
64684;SDS011;51109;47.414;18.954;2023-11-19T06:54:51;27.98;;;15.68;;
64684;SDS011;51109;47.414;18.954;2023-11-19T06:57:19;28.65;;;15.27;;
64684;SDS011;51109;47.414;18.954;2023-11-19T06:59:45;33.17;;;16.20;;
64684;SDS011;51109;47.414;18.954;2023-11-19T07:02:11;28.50;;;16.45;;
64684;SDS011;51109;47.414;18.954;2023-11-19T07:04:40;31.35;;;17.65;;
64684;SDS011;51109;47.414;18.954;2023-11-19T07:07:06;38.45;;;18.88;;
64684;SDS011;51109;47.414;18.954;2023-11-19T07:09:33;36.25;;;19.17;;
64684;SDS011;51109;47.414;18.954;2023-11-19T07:11:59;37.45;;;19.15;;
64684;SDS011;51109;47.414;18.954;2023-11-19T07:14:26;39.05;;;19.10;;
64684;SDS011;51109;47.414;18.954;2023-11-19T07:16:54;35.50;;;19.85;;
64684;SDS011;51109;47.414;18.954;2023-11-19T07:19:21;31.15;;;16.05;;
64684;SDS011;51109;47.414;18.954;2023-11-19T07:21:47;31.85;;;16.60;;
64684;SDS011;51109;47.414;18.954;2023-11-19T07:24:13;26.02;;;15.55;;
64684;SDS011;51109;47.414;18.954;2023-11-19T07:26:43;28.45;;;14.77;;
64684;SDS011;51109;47.414;18.954;2023-11-19T07:29:15;26.70;;;13.95;;
64684;SDS011;51109;47.414;18.954;2023-11-19T07:31:42;23.15;;;13.52;;
64684;SDS011;51109;47.414;18.954;2023-11-19T07:34:09;28.95;;;15.50;;
64684;SDS011;51109;47.414;18.954;2023-11-19T07:36:37;25.17;;;15.10;;
64684;SDS011;51109;47.414;18.954;2023-11-19T07:39:06;27.58;;;14.57;;
64684;SDS011;51109;47.414;18.954;2023-11-19T07:41:33;26.80;;;15.25;;
64684;SDS011;51109;47.414;18.954;2023-11-19T07:44:00;28.42;;;15.02;;
64684;SDS011;51109;47.414;18.954;2023-11-19T07:46:29;24.60;;;14.38;;
64684;SDS011;51109;47.414;18.954;2023-11-19T07:48:59;23.80;;;14.20;;
64684;SDS011;51109;47.414;18.954;2023-11-19T07:51:27;27.25;;;14.70;;
64684;SDS011;51109;47.414;18.954;2023-11-19T07:53:56;30.58;;;17.48;;
64684;SDS011;51109;47.414;18.954;2023-11-19T07:56:23;33.03;;;17.70;;
64684;SDS011;51109;47.414;18.954;2023-11-19T07:58:49;32.92;;;17.83;;
64684;SDS011;51109;47.414;18.954;2023-11-19T08:01:15;31.40;;;17.48;;
64684;SDS011;51109;47.414;18.954;2023-11-19T08:03:42;31.58;;;18.27;;
64684;SDS011;51109;47.414;18.954;2023-11-19T08:06:08;34.67;;;18.67;;
64684;SDS011;51109;47.414;18.954;2023-11-19T08:08:35;34.33;;;19.20;;
64684;SDS011;51109;47.414;18.954;2023-11-19T08:11:03;30.50;;;17.90;;
64684;SDS011;51109;47.414;18.954;2023-11-19T08:13:30;28.48;;;17.05;;
64684;SDS011;51109;47.414;18.954;2023-11-19T08:16:00;29.60;;;17.10;;
64684;SDS011;51109;47.414;18.954;2023-11-19T08:18:26;28.13;;;15.98;;
64684;SDS011;51109;47.414;18.954;2023-11-19T08:20:52;28.10;;;16.55;;
64684;SDS011;51109;47.414;18.954;2023-11-19T08:23:19;27.95;;;15.05;;
64684;SDS011;51109;47.414;18.954;2023-11-19T08:25:46;23.25;;;14.20;;
64684;SDS011;51109;47.414;18.954;2023-11-19T08:28:12;28.77;;;14.98;;
64684;SDS011;51109;47.414;18.954;2023-11-19T08:30:38;29.55;;;16.85;;
64684;SDS011;51109;47.414;18.954;2023-11-19T08:33:07;35.72;;;17.55;;
64684;SDS011;51109;47.414;18.954;2023-11-19T08:35:33;24.10;;;14.85;;
64684;SDS011;51109;47.414;18.954;2023-11-19T08:38:00;27.05;;;15.85;;
64684;SDS011;51109;47.414;18.954;2023-11-19T08:40:27;26.58;;;16.23;;
64684;SDS011;51109;47.414;18.954;2023-11-19T08:42:55;26.02;;;16.52;;
64684;SDS011;51109;47.414;18.954;2023-11-19T08:45:21;32.75;;;17.25;;
64684;SDS011;51109;47.414;18.954;2023-11-19T08:47:48;28.15;;;16.60;;
64684;SDS011;51109;47.414;18.954;2023-11-19T08:50:14;27.15;;;16.60;;
64684;SDS011;51109;47.414;18.954;2023-11-19T08:52:40;28.20;;;16.30;;
64684;SDS011;51109;47.414;18.954;2023-11-19T08:55:07;31.67;;;16.80;;
64684;SDS011;51109;47.414;18.954;2023-11-19T08:57:35;26.63;;;16.38;;
64684;SDS011;51109;47.414;18.954;2023-11-19T09:00:04;30.85;;;18.17;;
64684;SDS011;51109;47.414;18.954;2023-11-19T09:02:34;29.35;;;16.80;;
64684;SDS011;51109;47.414;18.954;2023-11-19T09:05:02;28.83;;;17.05;;
64684;SDS011;51109;47.414;18.954;2023-11-19T09:07:29;27.63;;;16.60;;
64684;SDS011;51109;47.414;18.954;2023-11-19T09:09:56;25.60;;;16.05;;
64684;SDS011;51109;47.414;18.954;2023-11-19T09:12:22;27.42;;;16.30;;
64684;SDS011;51109;47.414;18.954;2023-11-19T09:14:51;26.80;;;16.75;;
64684;SDS011;51109;47.414;18.954;2023-11-19T09:17:17;27.92;;;17.85;;
64684;SDS011;51109;47.414;18.954;2023-11-19T09:19:44;29.40;;;17.48;;
64684;SDS011;51109;47.414;18.954;2023-11-19T09:22:14;30.38;;;17.42;;
64684;SDS011;51109;47.414;18.954;2023-11-19T09:24:41;38.22;;;21.95;;
64684;SDS011;51109;47.414;18.954;2023-11-19T09:27:12;33.63;;;19.05;;
64684;SDS011;51109;47.414;18.954;2023-11-19T09:29:38;28.85;;;16.60;;
64684;SDS011;51109;47.414;18.954;2023-11-19T09:32:04;25.05;;;16.02;;
64684;SDS011;51109;47.414;18.954;2023-11-19T09:34:31;24.55;;;14.98;;
64684;SDS011;51109;47.414;18.954;2023-11-19T09:36:57;24.70;;;15.52;;
64684;SDS011;51109;47.414;18.954;2023-11-19T09:39:23;29.67;;;16.27;;
64684;SDS011;51109;47.414;18.954;2023-11-19T09:41:51;25.42;;;15.45;;
64684;SDS011;51109;47.414;18.954;2023-11-19T09:44:17;28.25;;;17.45;;
64684;SDS011;51109;47.414;18.954;2023-11-19T09:46:44;26.80;;;16.48;;
64684;SDS011;51109;47.414;18.954;2023-11-19T09:49:11;31.10;;;18.88;;
64684;SDS011;51109;47.414;18.954;2023-11-19T09:51:39;26.30;;;16.60;;
64684;SDS011;51109;47.414;18.954;2023-11-19T09:54:06;28.77;;;16.35;;
64684;SDS011;51109;47.414;18.954;2023-11-19T09:56:35;25.38;;;15.70;;
64684;SDS011;51109;47.414;18.954;2023-11-19T09:59:02;27.88;;;16.83;;
64684;SDS011;51109;47.414;18.954;2023-11-19T10:01:28;26.08;;;15.32;;
64684;SDS011;51109;47.414;18.954;2023-11-19T10:03:57;24.15;;;16.17;;
64684;SDS011;51109;47.414;18.954;2023-11-19T10:06:26;24.55;;;15.73;;
64684;SDS011;51109;47.414;18.954;2023-11-19T10:08:55;30.40;;;17.30;;
64684;SDS011;51109;47.414;18.954;2023-11-19T10:11:22;30.08;;;19.00;;
64684;SDS011;51109;47.414;18.954;2023-11-19T10:13:48;27.95;;;16.75;;
64684;SDS011;51109;47.414;18.954;2023-11-19T10:16:15;26.92;;;16.80;;
64684;SDS011;51109;47.414;18.954;2023-11-19T10:18:45;26.38;;;16.65;;
64684;SDS011;51109;47.414;18.954;2023-11-19T10:21:14;28.45;;;17.02;;
64684;SDS011;51109;47.414;18.954;2023-11-19T10:23:50;29.52;;;18.52;;
64684;SDS011;51109;47.414;18.954;2023-11-19T10:26:22;36.50;;;19.17;;
64684;SDS011;51109;47.414;18.954;2023-11-19T10:28:48;32.35;;;18.17;;
64684;SDS011;51109;47.414;18.954;2023-11-19T10:31:15;28.42;;;17.40;;
64684;SDS011;51109;47.414;18.954;2023-11-19T10:33:45;26.65;;;15.63;;
64684;SDS011;51109;47.414;18.954;2023-11-19T10:36:14;28.45;;;16.10;;
64684;SDS011;51109;47.414;18.954;2023-11-19T10:38:41;28.63;;;17.35;;
64684;SDS011;51109;47.414;18.954;2023-11-19T10:41:27;26.90;;;16.33;;
64684;SDS011;51109;47.414;18.954;2023-11-19T10:43:57;24.75;;;14.98;;
64684;SDS011;51109;47.414;18.954;2023-11-19T10:46:35;27.95;;;16.42;;
64684;SDS011;51109;47.414;18.954;2023-11-19T10:49:08;26.00;;;15.93;;
64684;SDS011;51109;47.414;18.954;2023-11-19T10:51:34;28.70;;;17.83;;
64684;SDS011;51109;47.414;18.954;2023-11-19T10:54:04;32.78;;;19.05;;
64684;SDS011;51109;47.414;18.954;2023-11-19T10:56:34;37.67;;;19.92;;
64684;SDS011;51109;47.414;18.954;2023-11-19T10:59:03;29.38;;;17.73;;
64684;SDS011;51109;47.414;18.954;2023-11-19T11:01:44;30.23;;;18.95;;
64684;SDS011;51109;47.414;18.954;2023-11-19T11:04:13;60.92;;;29.17;;
64684;SDS011;51109;47.414;18.954;2023-11-19T11:06:45;50.13;;;25.48;;
64684;SDS011;51109;47.414;18.954;2023-11-19T11:09:12;40.33;;;21.13;;
64684;SDS011;51109;47.414;18.954;2023-11-19T11:11:40;88.78;;;38.35;;
64684;SDS011;51109;47.414;18.954;2023-11-19T11:14:10;41.13;;;22.88;;
64684;SDS011;51109;47.414;18.954;2023-11-19T11:16:43;34.85;;;20.13;;
64684;SDS011;51109;47.414;18.954;2023-11-19T11:19:10;31.98;;;19.27;;
64684;SDS011;51109;47.414;18.954;2023-11-19T11:21:40;28.52;;;16.08;;
64684;SDS011;51109;47.414;18.954;2023-11-19T11:24:14;28.20;;;17.67;;
64684;SDS011;51109;47.414;18.954;2023-11-19T11:30:26;23.07;;;15.20;;
64684;SDS011;51109;47.414;18.954;2023-11-19T11:38:10;29.25;;;17.02;;
64684;SDS011;51109;47.414;18.954;2023-11-19T11:40:36;30.67;;;17.08;;
64684;SDS011;51109;47.414;18.954;2023-11-19T11:43:02;21.50;;;14.93;;
64684;SDS011;51109;47.414;18.954;2023-11-19T11:45:39;29.25;;;16.77;;
64684;SDS011;51109;47.414;18.954;2023-11-19T11:48:09;27.52;;;16.95;;
64684;SDS011;51109;47.414;18.954;2023-11-19T11:50:51;29.58;;;17.48;;
64684;SDS011;51109;47.414;18.954;2023-11-19T11:53:19;25.10;;;15.45;;
64684;SDS011;51109;47.414;18.954;2023-11-19T11:58:20;30.38;;;17.17;;
64684;SDS011;51109;47.414;18.954;2023-11-19T12:00:57;29.30;;;17.38;;
64684;SDS011;51109;47.414;18.954;2023-11-19T12:03:26;28.80;;;18.05;;
64684;SDS011;51109;47.414;18.954;2023-11-19T12:05:54;27.02;;;17.80;;
64684;SDS011;51109;47.414;18.954;2023-11-19T12:08:24;29.98;;;16.67;;
64684;SDS011;51109;47.414;18.954;2023-11-19T12:10:52;25.75;;;16.13;;
64684;SDS011;51109;47.414;18.954;2023-11-19T12:13:23;23.27;;;15.13;;
64684;SDS011;51109;47.414;18.954;2023-11-19T12:18:27;24.23;;;16.02;;
64684;SDS011;51109;47.414;18.954;2023-11-19T12:20:55;24.88;;;15.57;;
64684;SDS011;51109;47.414;18.954;2023-11-19T12:23:21;26.17;;;15.48;;
64684;SDS011;51109;47.414;18.954;2023-11-19T12:25:48;22.15;;;14.13;;
64684;SDS011;51109;47.414;18.954;2023-11-19T12:28:14;24.23;;;13.63;;
64684;SDS011;51109;47.414;18.954;2023-11-19T12:30:44;22.15;;;13.52;;
64684;SDS011;51109;47.414;18.954;2023-11-19T12:33:11;22.23;;;13.38;;
64684;SDS011;51109;47.414;18.954;2023-11-19T12:35:42;24.63;;;13.52;;
64684;SDS011;51109;47.414;18.954;2023-11-19T12:38:18;23.05;;;12.82;;
64684;SDS011;51109;47.414;18.954;2023-11-19T12:43:29;19.42;;;12.88;;
64684;SDS011;51109;47.414;18.954;2023-11-19T12:45:56;19.40;;;12.85;;
64684;SDS011;51109;47.414;18.954;2023-11-19T12:48:22;19.50;;;12.57;;
64684;SDS011;51109;47.414;18.954;2023-11-19T12:50:55;19.52;;;12.65;;
64684;SDS011;51109;47.414;18.954;2023-11-19T12:53:23;22.60;;;11.48;;
64684;SDS011;51109;47.414;18.954;2023-11-19T12:55:50;22.58;;;13.00;;
64684;SDS011;51109;47.414;18.954;2023-11-19T13:01:17;22.52;;;13.85;;
64684;SDS011;51109;47.414;18.954;2023-11-19T13:03:45;24.55;;;13.07;;
64684;SDS011;51109;47.414;18.954;2023-11-19T13:06:12;24.25;;;13.82;;
64684;SDS011;51109;47.414;18.954;2023-11-19T13:09:00;25.35;;;13.85;;
64684;SDS011;51109;47.414;18.954;2023-11-19T13:11:30;27.25;;;16.45;;
64684;SDS011;51109;47.414;18.954;2023-11-19T13:14:02;20.35;;;12.52;;
64684;SDS011;51109;47.414;18.954;2023-11-19T13:16:37;22.23;;;14.00;;
64684;SDS011;51109;47.414;18.954;2023-11-19T13:19:04;21.08;;;13.13;;
64684;SDS011;51109;47.414;18.954;2023-11-19T13:21:30;22.55;;;13.45;;
64684;SDS011;51109;47.414;18.954;2023-11-19T13:23:57;21.02;;;12.82;;
64684;SDS011;51109;47.414;18.954;2023-11-19T13:26:26;22.42;;;13.00;;
64684;SDS011;51109;47.414;18.954;2023-11-19T13:28:53;21.27;;;12.70;;
64684;SDS011;51109;47.414;18.954;2023-11-19T13:31:19;20.90;;;13.80;;
64684;SDS011;51109;47.414;18.954;2023-11-19T13:33:46;21.02;;;12.98;;
64684;SDS011;51109;47.414;18.954;2023-11-19T13:36:12;21.23;;;13.07;;
64684;SDS011;51109;47.414;18.954;2023-11-19T13:38:39;22.50;;;14.30;;
64684;SDS011;51109;47.414;18.954;2023-11-19T13:41:09;19.70;;;12.80;;
64684;SDS011;51109;47.414;18.954;2023-11-19T13:43:37;22.58;;;12.88;;
64684;SDS011;51109;47.414;18.954;2023-11-19T13:46:03;18.33;;;13.43;;
64684;SDS011;51109;47.414;18.954;2023-11-19T13:48:30;25.27;;;13.60;;
64684;SDS011;51109;47.414;18.954;2023-11-19T13:50:56;24.15;;;15.40;;
64684;SDS011;51109;47.414;18.954;2023-11-19T13:53:23;21.92;;;14.20;;
64684;SDS011;51109;47.414;18.954;2023-11-19T13:55:49;23.83;;;13.73;;
64684;SDS011;51109;47.414;18.954;2023-11-19T13:58:16;21.45;;;13.27;;
64684;SDS011;51109;47.414;18.954;2023-11-19T14:00:42;20.48;;;13.52;;
64684;SDS011;51109;47.414;18.954;2023-11-19T14:03:09;23.90;;;15.20;;
64684;SDS011;51109;47.414;18.954;2023-11-19T14:05:37;21.23;;;14.15;;
64684;SDS011;51109;47.414;18.954;2023-11-19T14:08:04;21.60;;;15.40;;
64684;SDS011;51109;47.414;18.954;2023-11-19T14:10:39;24.83;;;15.40;;
64684;SDS011;51109;47.414;18.954;2023-11-19T14:13:06;25.50;;;16.50;;
64684;SDS011;51109;47.414;18.954;2023-11-19T14:15:32;29.02;;;17.45;;
64684;SDS011;51109;47.414;18.954;2023-11-19T14:17:59;29.42;;;17.98;;
64684;SDS011;51109;47.414;18.954;2023-11-19T14:20:25;34.28;;;20.52;;
64684;SDS011;51109;47.414;18.954;2023-11-19T14:22:52;33.33;;;21.92;;
64684;SDS011;51109;47.414;18.954;2023-11-19T14:25:21;37.47;;;20.80;;
64684;SDS011;51109;47.414;18.954;2023-11-19T14:30:22;34.53;;;19.88;;
64684;SDS011;51109;47.414;18.954;2023-11-19T14:32:48;32.40;;;20.20;;
64684;SDS011;51109;47.414;18.954;2023-11-19T14:35:15;36.15;;;21.55;;
64684;SDS011;51109;47.414;18.954;2023-11-19T14:37:41;39.15;;;23.23;;
64684;SDS011;51109;47.414;18.954;2023-11-19T14:40:07;35.10;;;23.90;;
64684;SDS011;51109;47.414;18.954;2023-11-19T14:42:37;41.28;;;23.90;;
64684;SDS011;51109;47.414;18.954;2023-11-19T14:45:06;35.72;;;22.75;;